sensor_id;sensor_type;location;lat;lon;timestamp;pressure;altitude;pressure_sealevel;temperature
62180;BMP280;48172;53.374;10.722;2022-12-20T00:01:29;101556.78;;;19.71
62180;BMP280;48172;53.374;10.722;2022-12-20T00:03:59;101554.50;;;19.69
62180;BMP280;48172;53.374;10.722;2022-12-20T00:06:28;101547.31;;;19.62
62180;BMP280;48172;53.374;10.722;2022-12-20T00:08:57;101540.78;;;19.60
62180;BMP280;48172;53.374;10.722;2022-12-20T00:11:25;101538.50;;;19.58
62180;BMP280;48172;53.374;10.722;2022-12-20T00:13:52;101532.06;;;19.52
62180;BMP280;48172;53.374;10.722;2022-12-20T00:16:21;101523.66;;;19.47
62180;BMP280;48172;53.374;10.722;2022-12-20T00:18:53;101521.03;;;19.43
62180;BMP280;48172;53.374;10.722;2022-12-20T00:21:21;101524.94;;;19.42
62180;BMP280;48172;53.374;10.722;2022-12-20T00:23:48;101520.06;;;19.37
62180;BMP280;48172;53.374;10.722;2022-12-20T00:26:16;101535.97;;;19.35
62180;BMP280;48172;53.374;10.722;2022-12-20T00:28:43;101530.31;;;19.29
62180;BMP280;48172;53.374;10.722;2022-12-20T00:31:15;101531.56;;;19.25
62180;BMP280;48172;53.374;10.722;2022-12-20T00:33:45;101527.31;;;19.24
62180;BMP280;48172;53.374;10.722;2022-12-20T00:36:12;101523.88;;;19.23
62180;BMP280;48172;53.374;10.722;2022-12-20T00:38:39;101523.94;;;19.20
62180;BMP280;48172;53.374;10.722;2022-12-20T00:41:09;101530.97;;;19.17
62180;BMP280;48172;53.374;10.722;2022-12-20T00:43:36;101533.34;;;19.15
62180;BMP280;48172;53.374;10.722;2022-12-20T00:46:04;101531.81;;;19.14
62180;BMP280;48172;53.374;10.722;2022-12-20T00:48:31;101521.81;;;19.11
62180;BMP280;48172;53.374;10.722;2022-12-20T00:51:00;101518.38;;;19.11
62180;BMP280;48172;53.374;10.722;2022-12-20T00:53:27;101519.13;;;19.11
62180;BMP280;48172;53.374;10.722;2022-12-20T00:55:53;101518.88;;;19.06
62180;BMP280;48172;53.374;10.722;2022-12-20T00:58:20;101524.28;;;19.06
62180;BMP280;48172;53.374;10.722;2022-12-20T01:00:47;101521.22;;;19.04
62180;BMP280;48172;53.374;10.722;2022-12-20T01:03:21;101515.13;;;18.99
62180;BMP280;48172;53.374;10.722;2022-12-20T01:05:52;101523.25;;;18.99
62180;BMP280;48172;53.374;10.722;2022-12-20T01:08:19;101522.91;;;18.97
62180;BMP280;48172;53.374;10.722;2022-12-20T01:10:46;101519.53;;;18.93
62180;BMP280;48172;53.374;10.722;2022-12-20T01:13:13;101512.94;;;18.94
62180;BMP280;48172;53.374;10.722;2022-12-20T01:15:39;101521.47;;;18.93
62180;BMP280;48172;53.374;10.722;2022-12-20T01:18:06;101526.13;;;18.92
62180;BMP280;48172;53.374;10.722;2022-12-20T01:20:32;101514.94;;;18.90
62180;BMP280;48172;53.374;10.722;2022-12-20T01:22:59;101507.59;;;18.91
62180;BMP280;48172;53.374;10.722;2022-12-20T01:25:25;101502.28;;;18.87
62180;BMP280;48172;53.374;10.722;2022-12-20T01:27:52;101500.72;;;18.86
62180;BMP280;48172;53.374;10.722;2022-12-20T01:30:18;101501.91;;;18.85
62180;BMP280;48172;53.374;10.722;2022-12-20T01:32:45;101498.13;;;18.83
62180;BMP280;48172;53.374;10.722;2022-12-20T01:35:11;101495.81;;;18.81
62180;BMP280;48172;53.374;10.722;2022-12-20T01:37:37;101490.81;;;18.80
62180;BMP280;48172;53.374;10.722;2022-12-20T01:40:05;101493.94;;;18.78
62180;BMP280;48172;53.374;10.722;2022-12-20T01:42:31;101490.91;;;18.76
62180;BMP280;48172;53.374;10.722;2022-12-20T01:44:58;101487.44;;;18.76
62180;BMP280;48172;53.374;10.722;2022-12-20T01:47:25;101488.28;;;18.73
62180;BMP280;48172;53.374;10.722;2022-12-20T01:49:56;101488.69;;;18.71
62180;BMP280;48172;53.374;10.722;2022-12-20T01:52:34;101493.03;;;18.69
62180;BMP280;48172;53.374;10.722;2022-12-20T01:55:16;101488.00;;;18.67
62180;BMP280;48172;53.374;10.722;2022-12-20T01:57:49;101486.91;;;18.64
62180;BMP280;48172;53.374;10.722;2022-12-20T02:00:17;101489.59;;;18.64
62180;BMP280;48172;53.374;10.722;2022-12-20T02:02:46;101483.84;;;18.62
62180;BMP280;48172;53.374;10.722;2022-12-20T02:05:15;101486.63;;;18.59
62180;BMP280;48172;53.374;10.722;2022-12-20T02:07:43;101483.59;;;18.57
62180;BMP280;48172;53.374;10.722;2022-12-20T02:10:13;101478.59;;;18.55
62180;BMP280;48172;53.374;10.722;2022-12-20T02:12:43;101470.06;;;18.57
62180;BMP280;48172;53.374;10.722;2022-12-20T02:26:29;101481.88;;;18.47
62180;BMP280;48172;53.374;10.722;2022-12-20T02:31:32;101468.34;;;18.47
62180;BMP280;48172;53.374;10.722;2022-12-20T02:34:01;101461.91;;;18.41
62180;BMP280;48172;53.374;10.722;2022-12-20T02:36:28;101464.63;;;18.41
62180;BMP280;48172;53.374;10.722;2022-12-20T02:38:55;101458.44;;;18.40
62180;BMP280;48172;53.374;10.722;2022-12-20T02:41:32;101456.91;;;18.39
62180;BMP280;48172;53.374;10.722;2022-12-20T02:44:09;101443.44;;;18.36
62180;BMP280;48172;53.374;10.722;2022-12-20T02:46:57;101456.97;;;18.36
62180;BMP280;48172;53.374;10.722;2022-12-20T02:49:29;101450.03;;;18.34
62180;BMP280;48172;53.374;10.722;2022-12-20T02:51:57;101452.41;;;18.32
62180;BMP280;48172;53.374;10.722;2022-12-20T02:54:25;101454.00;;;18.30
62180;BMP280;48172;53.374;10.722;2022-12-20T02:56:59;101448.59;;;18.30
62180;BMP280;48172;53.374;10.722;2022-12-20T02:59:31;101457.88;;;18.29
62180;BMP280;48172;53.374;10.722;2022-12-20T03:02:00;101450.94;;;18.28
62180;BMP280;48172;53.374;10.722;2022-12-20T03:04:30;101446.72;;;18.27
62180;BMP280;48172;53.374;10.722;2022-12-20T03:06:59;101442.50;;;18.26
62180;BMP280;48172;53.374;10.722;2022-12-20T03:09:27;101450.59;;;18.26
62180;BMP280;48172;53.374;10.722;2022-12-20T03:11:55;101445.59;;;18.24
62180;BMP280;48172;53.374;10.722;2022-12-20T03:14:21;101445.59;;;18.24
62180;BMP280;48172;53.374;10.722;2022-12-20T03:16:48;101452.19;;;18.23
62180;BMP280;48172;53.374;10.722;2022-12-20T03:19:15;101456.50;;;18.21
62180;BMP280;48172;53.374;10.722;2022-12-20T03:21:42;101456.91;;;18.19
62180;BMP280;48172;53.374;10.722;2022-12-20T03:24:08;101458.84;;;18.19
62180;BMP280;48172;53.374;10.722;2022-12-20T03:26:36;101459.28;;;18.17
62180;BMP280;48172;53.374;10.722;2022-12-20T03:29:03;101457.00;;;18.16
62180;BMP280;48172;53.374;10.722;2022-12-20T03:31:30;101467.03;;;18.15
62180;BMP280;48172;53.374;10.722;2022-12-20T03:33:56;101458.59;;;18.13
62180;BMP280;48172;53.374;10.722;2022-12-20T03:36:23;101458.25;;;18.11
62180;BMP280;48172;53.374;10.722;2022-12-20T03:38:50;101462.50;;;18.12
62180;BMP280;48172;53.374;10.722;2022-12-20T03:41:18;101463.66;;;18.11
62180;BMP280;48172;53.374;10.722;2022-12-20T03:43:47;101472.59;;;18.08
62180;BMP280;48172;53.374;10.722;2022-12-20T03:46:14;101453.66;;;18.08
62180;BMP280;48172;53.374;10.722;2022-12-20T03:48:41;101456.78;;;18.07
62180;BMP280;48172;53.374;10.722;2022-12-20T03:51:08;101454.06;;;18.07
62180;BMP280;48172;53.374;10.722;2022-12-20T03:53:35;101450.63;;;18.06
62180;BMP280;48172;53.374;10.722;2022-12-20T03:56:01;101451.44;;;18.03
62180;BMP280;48172;53.374;10.722;2022-12-20T03:58:28;101454.50;;;18.05
62180;BMP280;48172;53.374;10.722;2022-12-20T04:00:56;101453.03;;;18.00
62180;BMP280;48172;53.374;10.722;2022-12-20T04:03:22;101444.16;;;18.00
62180;BMP280;48172;53.374;10.722;2022-12-20T04:05:49;101442.66;;;17.99
62180;BMP280;48172;53.374;10.722;2022-12-20T04:08:15;101437.66;;;17.97
62180;BMP280;48172;53.374;10.722;2022-12-20T04:10:42;101440.78;;;17.96
62180;BMP280;48172;53.374;10.722;2022-12-20T04:13:27;101452.34;;;17.96
62180;BMP280;48172;53.374;10.722;2022-12-20T04:15:54;101443.53;;;17.92
62180;BMP280;48172;53.374;10.722;2022-12-20T04:18:26;101446.25;;;17.92
62180;BMP280;48172;53.374;10.722;2022-12-20T04:20:52;101456.28;;;17.92
62180;BMP280;48172;53.374;10.722;2022-12-20T04:23:19;101455.19;;;17.89
62180;BMP280;48172;53.374;10.722;2022-12-20T04:25:45;101444.38;;;17.89
62180;BMP280;48172;53.374;10.722;2022-12-20T04:28:12;101448.66;;;17.87
62180;BMP280;48172;53.374;10.722;2022-12-20T04:30:38;101447.13;;;17.86
62180;BMP280;48172;53.374;10.722;2022-12-20T04:33:05;101454.06;;;17.87
62180;BMP280;48172;53.374;10.722;2022-12-20T04:35:31;101444.44;;;17.86
62180;BMP280;48172;53.374;10.722;2022-12-20T04:37:58;101441.72;;;17.86
62180;BMP280;48172;53.374;10.722;2022-12-20T04:40:24;101427.47;;;17.85
62180;BMP280;48172;53.374;10.722;2022-12-20T04:42:51;101420.94;;;17.83
62180;BMP280;48172;53.374;10.722;2022-12-20T04:45:17;101419.41;;;17.82
62180;BMP280;48172;53.374;10.722;2022-12-20T04:47:44;101424.41;;;17.83
62180;BMP280;48172;53.374;10.722;2022-12-20T04:50:10;101431.41;;;17.81
62180;BMP280;48172;53.374;10.722;2022-12-20T04:52:37;101415.94;;;17.81
62180;BMP280;48172;53.374;10.722;2022-12-20T04:55:22;101414.09;;;17.78
62180;BMP280;48172;53.374;10.722;2022-12-20T04:57:48;101423.38;;;17.77
62180;BMP280;48172;53.374;10.722;2022-12-20T05:00:15;101414.13;;;17.75
62180;BMP280;48172;53.374;10.722;2022-12-20T05:02:42;101434.94;;;17.78
62180;BMP280;48172;53.374;10.722;2022-12-20T05:05:09;101429.19;;;17.76
62180;BMP280;48172;53.374;10.722;2022-12-20T05:07:35;101426.13;;;17.74
62180;BMP280;48172;53.374;10.722;2022-12-20T05:10:03;101436.94;;;17.74
62180;BMP280;48172;53.374;10.722;2022-12-20T05:12:30;101431.19;;;17.72
62180;BMP280;48172;53.374;10.722;2022-12-20T05:14:56;101428.09;;;17.69
62180;BMP280;48172;53.374;10.722;2022-12-20T05:17:22;101431.59;;;17.70
62180;BMP280;48172;53.374;10.722;2022-12-20T05:19:51;101432.78;;;17.69
62180;BMP280;48172;53.374;10.722;2022-12-20T05:22:17;101430.50;;;17.67
62180;BMP280;48172;53.374;10.722;2022-12-20T05:25:03;101433.19;;;17.67
62180;BMP280;48172;53.374;10.722;2022-12-20T05:27:48;101428.59;;;17.64
62180;BMP280;48172;53.374;10.722;2022-12-20T05:30:14;101417.03;;;17.64
62180;BMP280;48172;53.374;10.722;2022-12-20T05:32:41;101419.00;;;17.63
62180;BMP280;48172;53.374;10.722;2022-12-20T05:35:08;101417.47;;;17.62
62180;BMP280;48172;53.374;10.722;2022-12-20T05:37:34;101417.88;;;17.61
62180;BMP280;48172;53.374;10.722;2022-12-20T05:40:02;101425.63;;;17.59
62180;BMP280;48172;53.374;10.722;2022-12-20T05:42:30;101419.88;;;17.57
62180;BMP280;48172;53.374;10.722;2022-12-20T05:44:56;101417.94;;;17.57
62180;BMP280;48172;53.374;10.722;2022-12-20T05:47:23;101420.66;;;17.57
62180;BMP280;48172;53.374;10.722;2022-12-20T05:49:50;101420.66;;;17.57
62180;BMP280;48172;53.374;10.722;2022-12-20T05:52:16;101432.97;;;17.58
62180;BMP280;48172;53.374;10.722;2022-12-20T05:54:43;101430.59;;;17.60
62180;BMP280;48172;53.374;10.722;2022-12-20T05:57:09;101424.81;;;17.62
62180;BMP280;48172;53.374;10.722;2022-12-20T05:59:36;101417.41;;;17.66
62180;BMP280;48172;53.374;10.722;2022-12-20T06:02:03;101415.31;;;17.74
62180;BMP280;48172;53.374;10.722;2022-12-20T06:04:30;101423.66;;;17.83
62180;BMP280;48172;53.374;10.722;2022-12-20T06:06:57;101410.34;;;17.92
62180;BMP280;48172;53.374;10.722;2022-12-20T06:09:25;101417.47;;;18.02
62180;BMP280;48172;53.374;10.722;2022-12-20T06:11:51;101418.78;;;18.14
62180;BMP280;48172;53.374;10.722;2022-12-20T06:14:18;101412.41;;;18.24
62180;BMP280;48172;53.374;10.722;2022-12-20T06:16:45;101418.75;;;18.33
62180;BMP280;48172;53.374;10.722;2022-12-20T06:19:12;101425.13;;;18.43
62180;BMP280;48172;53.374;10.722;2022-12-20T06:21:46;101431.84;;;18.55
62180;BMP280;48172;53.374;10.722;2022-12-20T06:24:13;101437.84;;;18.62
62180;BMP280;48172;53.374;10.722;2022-12-20T06:26:39;101424.84;;;18.74
62180;BMP280;48172;53.374;10.722;2022-12-20T06:29:06;101425.44;;;18.81
62180;BMP280;48172;53.374;10.722;2022-12-20T06:31:35;101430.25;;;18.90
62180;BMP280;48172;53.374;10.722;2022-12-20T06:34:01;101427.38;;;18.97
62180;BMP280;48172;53.374;10.722;2022-12-20T06:36:28;101428.31;;;19.07
62180;BMP280;48172;53.374;10.722;2022-12-20T06:38:54;101427.72;;;19.15
62180;BMP280;48172;53.374;10.722;2022-12-20T06:41:21;101431.00;;;19.23
62180;BMP280;48172;53.374;10.722;2022-12-20T06:43:48;101433.13;;;19.31
62180;BMP280;48172;53.374;10.722;2022-12-20T06:46:14;101437.56;;;19.38
62180;BMP280;48172;53.374;10.722;2022-12-20T06:48:41;101430.47;;;19.44
62180;BMP280;48172;53.374;10.722;2022-12-20T06:51:07;101433.72;;;19.52
62180;BMP280;48172;53.374;10.722;2022-12-20T06:53:34;101431.28;;;19.57
62180;BMP280;48172;53.374;10.722;2022-12-20T06:56:00;101426.09;;;19.63
62180;BMP280;48172;53.374;10.722;2022-12-20T06:58:27;101430.56;;;19.70
62180;BMP280;48172;53.374;10.722;2022-12-20T07:00:53;101426.47;;;19.78
62180;BMP280;48172;53.374;10.722;2022-12-20T07:03:20;101430.16;;;19.84
62180;BMP280;48172;53.374;10.722;2022-12-20T07:05:51;101440.47;;;19.89
62180;BMP280;48172;53.374;10.722;2022-12-20T07:08:19;101430.97;;;19.97
62180;BMP280;48172;53.374;10.722;2022-12-20T07:10:46;101429.56;;;20.05
62180;BMP280;48172;53.374;10.722;2022-12-20T07:13:13;101421.66;;;20.11
62180;BMP280;48172;53.374;10.722;2022-12-20T07:15:39;101421.13;;;20.16
62180;BMP280;48172;53.374;10.722;2022-12-20T07:18:06;101414.41;;;20.20
62180;BMP280;48172;53.374;10.722;2022-12-20T07:20:33;101418.97;;;20.23
62180;BMP280;48172;53.374;10.722;2022-12-20T07:22:59;101413.00;;;20.28
62180;BMP280;48172;53.374;10.722;2022-12-20T07:25:26;101420.69;;;20.30
62180;BMP280;48172;53.374;10.722;2022-12-20T07:27:52;101419.38;;;20.35
62180;BMP280;48172;53.374;10.722;2022-12-20T07:32:50;101415.16;;;20.34
62180;BMP280;48172;53.374;10.722;2022-12-20T07:35:16;101414.72;;;20.22
62180;BMP280;48172;53.374;10.722;2022-12-20T07:37:43;101420.50;;;20.24
62180;BMP280;48172;53.374;10.722;2022-12-20T07:40:10;101409.19;;;20.26
62180;BMP280;48172;53.374;10.722;2022-12-20T07:42:37;101409.06;;;20.29
62180;BMP280;48172;53.374;10.722;2022-12-20T07:45:11;101402.44;;;20.30
62180;BMP280;48172;53.374;10.722;2022-12-20T07:47:38;101411.25;;;20.35
62180;BMP280;48172;53.374;10.722;2022-12-20T07:50:05;101420.78;;;20.39
62180;BMP280;48172;53.374;10.722;2022-12-20T07:52:33;101419.19;;;20.42
62180;BMP280;48172;53.374;10.722;2022-12-20T07:55:03;101404.28;;;20.46
62180;BMP280;48172;53.374;10.722;2022-12-20T07:57:34;101405.69;;;20.51
62180;BMP280;48172;53.374;10.722;2022-12-20T08:00:03;101400.38;;;20.47
62180;BMP280;48172;53.374;10.722;2022-12-20T08:02:34;101406.78;;;20.53
62180;BMP280;48172;53.374;10.722;2022-12-20T08:05:04;101407.88;;;20.56
62180;BMP280;48172;53.374;10.722;2022-12-20T08:07:33;101409.69;;;20.59
62180;BMP280;48172;53.374;10.722;2022-12-20T08:09:59;101410.81;;;20.61
62180;BMP280;48172;53.374;10.722;2022-12-20T08:12:27;101403.31;;;20.66
62180;BMP280;48172;53.374;10.722;2022-12-20T08:14:56;101395.03;;;20.69
62180;BMP280;48172;53.374;10.722;2022-12-20T08:17:23;101403.81;;;20.73
62180;BMP280;48172;53.374;10.722;2022-12-20T08:19:50;101400.56;;;20.78
62180;BMP280;48172;53.374;10.722;2022-12-20T08:22:18;101395.78;;;20.82
62180;BMP280;48172;53.374;10.722;2022-12-20T08:24:44;101393.69;;;20.86
62180;BMP280;48172;53.374;10.722;2022-12-20T08:27:11;101397.94;;;20.87
62180;BMP280;48172;53.374;10.722;2022-12-20T08:29:37;101393.78;;;20.95
62180;BMP280;48172;53.374;10.722;2022-12-20T08:32:04;101391.59;;;21.03
62180;BMP280;48172;53.374;10.722;2022-12-20T08:34:31;101389.81;;;21.09
62180;BMP280;48172;53.374;10.722;2022-12-20T08:36:58;101391.53;;;21.16
62180;BMP280;48172;53.374;10.722;2022-12-20T08:39:24;101386.63;;;21.23
62180;BMP280;48172;53.374;10.722;2022-12-20T08:41:51;101392.56;;;21.31
62180;BMP280;48172;53.374;10.722;2022-12-20T08:44:17;101393.06;;;21.39
62180;BMP280;48172;53.374;10.722;2022-12-20T08:46:44;101387.81;;;21.44
62180;BMP280;48172;53.374;10.722;2022-12-20T08:49:11;101390.59;;;21.53
62180;BMP280;48172;53.374;10.722;2022-12-20T08:51:37;101386.44;;;21.61
62180;BMP280;48172;53.374;10.722;2022-12-20T08:54:04;101386.94;;;21.69
62180;BMP280;48172;53.374;10.722;2022-12-20T08:56:30;101381.97;;;21.77
62180;BMP280;48172;53.374;10.722;2022-12-20T08:58:57;101379.75;;;21.84
62180;BMP280;48172;53.374;10.722;2022-12-20T09:01:23;101366.31;;;21.90
62180;BMP280;48172;53.374;10.722;2022-12-20T09:06:20;101365.47;;;22.02
62180;BMP280;48172;53.374;10.722;2022-12-20T09:08:47;101363.69;;;22.08
62180;BMP280;48172;53.374;10.722;2022-12-20T09:11:16;101363.53;;;22.12
62180;BMP280;48172;53.374;10.722;2022-12-20T09:13:45;101372.59;;;22.18
62180;BMP280;48172;53.374;10.722;2022-12-20T09:16:14;101383.66;;;22.23
62180;BMP280;48172;53.374;10.722;2022-12-20T09:18:41;101380.06;;;22.26
62180;BMP280;48172;53.374;10.722;2022-12-20T09:21:09;101378.25;;;22.32
62180;BMP280;48172;53.374;10.722;2022-12-20T09:23:36;101377.03;;;22.33
62180;BMP280;48172;53.374;10.722;2022-12-20T09:26:10;101363.28;;;22.37
62180;BMP280;48172;53.374;10.722;2022-12-20T09:28:37;101366.97;;;22.43
62180;BMP280;48172;53.374;10.722;2022-12-20T09:31:06;101366.16;;;22.43
62180;BMP280;48172;53.374;10.722;2022-12-20T09:33:34;101365.59;;;22.48
62180;BMP280;48172;53.374;10.722;2022-12-20T09:36:01;101372.09;;;22.50
62180;BMP280;48172;53.374;10.722;2022-12-20T09:38:28;101366.94;;;22.52
62180;BMP280;48172;53.374;10.722;2022-12-20T09:41:00;101370.88;;;22.51
62180;BMP280;48172;53.374;10.722;2022-12-20T09:43:28;101381.31;;;22.53
62180;BMP280;48172;53.374;10.722;2022-12-20T09:45:57;101369.38;;;22.50
62180;BMP280;48172;53.374;10.722;2022-12-20T09:48:30;101366.19;;;22.52
62180;BMP280;48172;53.374;10.722;2022-12-20T09:56:14;101353.03;;;22.50
62180;BMP280;48172;53.374;10.722;2022-12-20T10:01:20;101355.63;;;22.54
62180;BMP280;48172;53.374;10.722;2022-12-20T10:03:52;101352.88;;;22.54
62180;BMP280;48172;53.374;10.722;2022-12-20T10:09:00;101347.44;;;22.54
62180;BMP280;48172;53.374;10.722;2022-12-20T10:14:43;101340.03;;;22.54
62180;BMP280;48172;53.374;10.722;2022-12-20T10:17:25;101330.22;;;22.48
62180;BMP280;48172;53.374;10.722;2022-12-20T10:22:53;101333.06;;;22.53
62180;BMP280;48172;53.374;10.722;2022-12-20T10:25:28;101327.03;;;22.58
62180;BMP280;48172;53.374;10.722;2022-12-20T10:27:56;101330.38;;;22.62
62180;BMP280;48172;53.374;10.722;2022-12-20T10:30:25;101331.75;;;22.67
62180;BMP280;48172;53.374;10.722;2022-12-20T10:32:55;101330.34;;;22.72
62180;BMP280;48172;53.374;10.722;2022-12-20T10:35:29;101322.00;;;22.75
62180;BMP280;48172;53.374;10.722;2022-12-20T10:38:09;101316.41;;;22.79
62180;BMP280;48172;53.374;10.722;2022-12-20T10:40:44;101315.38;;;22.85
62180;BMP280;48172;53.374;10.722;2022-12-20T10:43:42;101307.63;;;22.93
62180;BMP280;48172;53.374;10.722;2022-12-20T10:46:10;101310.34;;;23.02
62180;BMP280;48172;53.374;10.722;2022-12-20T10:48:39;101310.19;;;23.06
62180;BMP280;48172;53.374;10.722;2022-12-20T10:54:02;101292.78;;;23.12
62180;BMP280;48172;53.374;10.722;2022-12-20T10:56:32;101292.59;;;23.16
62180;BMP280;48172;53.374;10.722;2022-12-20T10:59:02;101310.78;;;23.19
62180;BMP280;48172;53.374;10.722;2022-12-20T11:01:34;101297.44;;;23.21
62180;BMP280;48172;53.374;10.722;2022-12-20T11:04:24;101294.09;;;23.26
62180;BMP280;48172;53.374;10.722;2022-12-20T11:06:51;101295.28;;;23.34
62180;BMP280;48172;53.374;10.722;2022-12-20T11:12:12;101282.34;;;23.44
62180;BMP280;48172;53.374;10.722;2022-12-20T11:14:40;101270.34;;;23.50
62180;BMP280;48172;53.374;10.722;2022-12-20T11:22:15;101267.19;;;23.52
62180;BMP280;48172;53.374;10.722;2022-12-20T11:25:16;101259.44;;;23.50
62180;BMP280;48172;53.374;10.722;2022-12-20T11:30:18;101248.13;;;23.43
62180;BMP280;48172;53.374;10.722;2022-12-20T11:52:35;101222.63;;;23.22
62180;BMP280;48172;53.374;10.722;2022-12-20T11:55:30;101216.56;;;23.18
62180;BMP280;48172;53.374;10.722;2022-12-20T11:58:05;101220.22;;;23.15
62180;BMP280;48172;53.374;10.722;2022-12-20T12:00:57;101207.81;;;23.14
62180;BMP280;48172;53.374;10.722;2022-12-20T12:03:37;101216.00;;;23.14
62180;BMP280;48172;53.374;10.722;2022-12-20T12:06:10;101210.25;;;23.12
62180;BMP280;48172;53.374;10.722;2022-12-20T12:08:52;101192.84;;;23.09
62180;BMP280;48172;53.374;10.722;2022-12-20T12:11:26;101211.63;;;23.07
62180;BMP280;48172;53.374;10.722;2022-12-20T12:14:21;101212.06;;;23.06
62180;BMP280;48172;53.374;10.722;2022-12-20T12:16:53;101206.63;;;23.06
62180;BMP280;48172;53.374;10.722;2022-12-20T12:19:23;101196.97;;;23.05
62180;BMP280;48172;53.374;10.722;2022-12-20T12:21:58;101198.59;;;23.02
62180;BMP280;48172;53.374;10.722;2022-12-20T12:24:48;101200.59;;;23.01
62180;BMP280;48172;53.374;10.722;2022-12-20T12:27:23;101196.38;;;23.00
62180;BMP280;48172;53.374;10.722;2022-12-20T12:29:51;101192.13;;;22.99
62180;BMP280;48172;53.374;10.722;2022-12-20T12:41:10;101184.38;;;22.98
62180;BMP280;48172;53.374;10.722;2022-12-20T12:43:55;101180.91;;;22.97
62180;BMP280;48172;53.374;10.722;2022-12-20T12:46:33;101178.66;;;22.96
62180;BMP280;48172;53.374;10.722;2022-12-20T12:51:37;101173.22;;;22.96
62180;BMP280;48172;53.374;10.722;2022-12-20T12:56:43;101173.97;;;22.96
62180;BMP280;48172;53.374;10.722;2022-12-20T13:17:57;101146.28;;;22.89
62180;BMP280;48172;53.374;10.722;2022-12-20T13:20:25;101139.63;;;22.90
62180;BMP280;48172;53.374;10.722;2022-12-20T13:25:39;101140.38;;;22.90
62180;BMP280;48172;53.374;10.722;2022-12-20T13:33:47;101122.81;;;22.91
62180;BMP280;48172;53.374;10.722;2022-12-20T13:36:36;101119.34;;;22.91
62180;BMP280;48172;53.374;10.722;2022-12-20T13:39:30;101120.84;;;22.92
62180;BMP280;48172;53.374;10.722;2022-12-20T13:42:16;101122.06;;;22.91
62180;BMP280;48172;53.374;10.722;2022-12-20T13:44:46;101137.19;;;22.92
62180;BMP280;48172;53.374;10.722;2022-12-20T13:49:46;101117.84;;;22.90
62180;BMP280;48172;53.374;10.722;2022-12-20T13:54:47;101131.75;;;22.92
62180;BMP280;48172;53.374;10.722;2022-12-20T13:57:16;101134.03;;;22.93
62180;BMP280;48172;53.374;10.722;2022-12-20T13:59:46;101137.66;;;22.90
62180;BMP280;48172;53.374;10.722;2022-12-20T14:02:21;101150.53;;;22.90
62180;BMP280;48172;53.374;10.722;2022-12-20T14:04:58;101141.16;;;22.91
62180;BMP280;48172;53.374;10.722;2022-12-20T14:07:27;101141.91;;;22.91
62180;BMP280;48172;53.374;10.722;2022-12-20T14:09:58;101138.41;;;22.91
62180;BMP280;48172;53.374;10.722;2022-12-20T14:12:25;101133.13;;;22.87
62180;BMP280;48172;53.374;10.722;2022-12-20T14:15:01;101119.06;;;22.89
62180;BMP280;48172;53.374;10.722;2022-12-20T14:17:32;101129.50;;;22.90
62180;BMP280;48172;53.374;10.722;2022-12-20T14:22:28;101122.53;;;22.89
62180;BMP280;48172;53.374;10.722;2022-12-20T14:24:55;101130.25;;;22.91
62180;BMP280;48172;53.374;10.722;2022-12-20T14:27:22;101122.81;;;22.91
62180;BMP280;48172;53.374;10.722;2022-12-20T14:29:50;101120.56;;;22.90
62180;BMP280;48172;53.374;10.722;2022-12-20T14:32:18;101121.31;;;22.90
62180;BMP280;48172;53.374;10.722;2022-12-20T14:34:46;101118.88;;;22.92
62180;BMP280;48172;53.374;10.722;2022-12-20T14:37:30;101123.59;;;22.92
62180;BMP280;48172;53.374;10.722;2022-12-20T14:42:35;101113.13;;;22.90
62180;BMP280;48172;53.374;10.722;2022-12-20T14:45:24;101106.19;;;22.89
62180;BMP280;48172;53.374;10.722;2022-12-20T14:48:03;101106.19;;;22.89
62180;BMP280;48172;53.374;10.722;2022-12-20T14:50:34;101111.34;;;22.87
62180;BMP280;48172;53.374;10.722;2022-12-20T14:53:02;101106.66;;;22.88
62180;BMP280;48172;53.374;10.722;2022-12-20T14:55:36;101099.69;;;22.87
62180;BMP280;48172;53.374;10.722;2022-12-20T14:58:26;101118.00;;;22.86
62180;BMP280;48172;53.374;10.722;2022-12-20T15:00:59;101108.34;;;22.85
62180;BMP280;48172;53.374;10.722;2022-12-20T15:03:27;101104.06;;;22.84
62180;BMP280;48172;53.374;10.722;2022-12-20T15:05:56;101099.84;;;22.83
62180;BMP280;48172;53.374;10.722;2022-12-20T15:08:25;101098.38;;;22.82
62180;BMP280;48172;53.374;10.722;2022-12-20T15:13:35;101086.38;;;22.80
62180;BMP280;48172;53.374;10.722;2022-12-20T15:16:05;101089.13;;;22.80
62180;BMP280;48172;53.374;10.722;2022-12-20T15:18:38;101083.66;;;22.80
62180;BMP280;48172;53.374;10.722;2022-12-20T15:21:16;101089.59;;;22.78
62180;BMP280;48172;53.374;10.722;2022-12-20T15:23:46;101086.88;;;22.78
62180;BMP280;48172;53.374;10.722;2022-12-20T15:26:15;101086.56;;;22.76
62180;BMP280;48172;53.374;10.722;2022-12-20T15:28:42;101093.97;;;22.76
62180;BMP280;48172;53.374;10.722;2022-12-20T15:31:13;101096.69;;;22.76
62180;BMP280;48172;53.374;10.722;2022-12-20T15:33:41;101092.78;;;22.77
62180;BMP280;48172;53.374;10.722;2022-12-20T15:36:15;101087.75;;;22.75
62180;BMP280;48172;53.374;10.722;2022-12-20T15:38:42;101094.44;;;22.74
62180;BMP280;48172;53.374;10.722;2022-12-20T15:41:30;101089.00;;;22.74
62180;BMP280;48172;53.374;10.722;2022-12-20T15:44:05;101089.47;;;22.73
62180;BMP280;48172;53.374;10.722;2022-12-20T15:46:32;101087.16;;;22.71
62180;BMP280;48172;53.374;10.722;2022-12-20T15:48:59;101084.44;;;22.71
62180;BMP280;48172;53.374;10.722;2022-12-20T15:51:28;101086.63;;;22.67
62180;BMP280;48172;53.374;10.722;2022-12-20T15:53:56;101076.78;;;22.60
62180;BMP280;48172;53.374;10.722;2022-12-20T15:56:23;101081.47;;;22.60
62180;BMP280;48172;53.374;10.722;2022-12-20T15:58:50;101078.91;;;22.56
62180;BMP280;48172;53.374;10.722;2022-12-20T16:01:35;101088.00;;;22.53